sensor_id;sensor_type;location;lat;lon;timestamp;noise_LAeq;noise_LA_min;noise_LA_max;noise_LA01;noise_LA95
77361;Laerm;66427;51.798;10.954;2023-09-07T00:01:16;32.89;30.05;39.70;;
77361;Laerm;66427;51.798;10.954;2023-09-07T00:03:41;39.24;32.09;52.44;;
77361;Laerm;66427;51.798;10.954;2023-09-07T00:06:07;36.83;29.73;45.35;;
77361;Laerm;66427;51.798;10.954;2023-09-07T00:08:32;32.89;29.58;41.97;;
77361;Laerm;66427;51.798;10.954;2023-09-07T00:11:04;30.94;29.21;36.60;;
77361;Laerm;66427;51.798;10.954;2023-09-07T00:13:30;33.24;29.08;41.96;;
77361;Laerm;66427;51.798;10.954;2023-09-07T00:15:58;31.34;29.00;40.24;;
77361;Laerm;66427;51.798;10.954;2023-09-07T00:18:23;34.83;29.58;44.79;;
77361;Laerm;66427;51.798;10.954;2023-09-07T00:20:49;39.13;30.82;48.90;;
77361;Laerm;66427;51.798;10.954;2023-09-07T00:23:15;30.71;29.29;34.45;;
77361;Laerm;66427;51.798;10.954;2023-09-07T00:25:40;33.44;29.77;38.00;;
77361;Laerm;66427;51.798;10.954;2023-09-07T00:28:06;32.99;28.98;42.21;;
77361;Laerm;66427;51.798;10.954;2023-09-07T00:30:31;33.59;29.77;46.25;;
77361;Laerm;66427;51.798;10.954;2023-09-07T00:32:56;34.29;29.13;41.66;;
77361;Laerm;66427;51.798;10.954;2023-09-07T00:35:22;38.31;30.35;46.82;;
77361;Laerm;66427;51.798;10.954;2023-09-07T00:37:47;31.20;29.39;45.93;;
77361;Laerm;66427;51.798;10.954;2023-09-07T00:40:13;34.40;29.33;42.05;;
77361;Laerm;66427;51.798;10.954;2023-09-07T00:42:38;36.34;30.38;43.28;;
77361;Laerm;66427;51.798;10.954;2023-09-07T00:45:03;32.40;29.43;39.53;;
77361;Laerm;66427;51.798;10.954;2023-09-07T00:47:29;38.94;28.94;47.21;;
77361;Laerm;66427;51.798;10.954;2023-09-07T00:49:54;40.55;33.05;47.94;;
77361;Laerm;66427;51.798;10.954;2023-09-07T00:52:19;41.48;33.50;47.04;;
77361;Laerm;66427;51.798;10.954;2023-09-07T00:54:45;37.11;29.70;49.07;;
77361;Laerm;66427;51.798;10.954;2023-09-07T00:57:11;33.89;28.35;48.68;;
77361;Laerm;66427;51.798;10.954;2023-09-07T00:59:36;38.92;28.52;47.80;;
77361;Laerm;66427;51.798;10.954;2023-09-07T01:02:18;37.01;29.07;46.46;;
77361;Laerm;66427;51.798;10.954;2023-09-07T01:04:43;36.01;29.86;41.79;;
77361;Laerm;66427;51.798;10.954;2023-09-07T01:07:17;37.65;32.04;46.01;;
77361;Laerm;66427;51.798;10.954;2023-09-07T01:09:43;36.23;30.35;43.67;;
77361;Laerm;66427;51.798;10.954;2023-09-07T01:12:15;37.55;30.06;47.48;;
77361;Laerm;66427;51.798;10.954;2023-09-07T01:14:41;37.93;30.82;46.80;;
77361;Laerm;66427;51.798;10.954;2023-09-07T01:17:07;36.99;29.85;47.48;;
77361;Laerm;66427;51.798;10.954;2023-09-07T01:19:33;38.04;29.08;47.31;;
77361;Laerm;66427;51.798;10.954;2023-09-07T01:21:59;35.18;28.80;44.03;;
77361;Laerm;66427;51.798;10.954;2023-09-07T01:24:25;34.53;28.15;44.06;;
77361;Laerm;66427;51.798;10.954;2023-09-07T01:26:51;39.56;30.83;51.25;;
77361;Laerm;66427;51.798;10.954;2023-09-07T01:29:17;33.27;27.84;46.07;;
77361;Laerm;66427;51.798;10.954;2023-09-07T01:31:42;37.76;30.27;49.12;;
77361;Laerm;66427;51.798;10.954;2023-09-07T01:34:08;37.50;30.75;46.08;;
77361;Laerm;66427;51.798;10.954;2023-09-07T01:36:33;41.42;33.84;47.75;;
77361;Laerm;66427;51.798;10.954;2023-09-07T01:38:59;39.22;32.58;46.16;;
77361;Laerm;66427;51.798;10.954;2023-09-07T01:41:24;36.62;29.30;43.44;;
77361;Laerm;66427;51.798;10.954;2023-09-07T01:43:50;34.03;28.92;44.01;;
77361;Laerm;66427;51.798;10.954;2023-09-07T01:46:15;36.47;28.54;43.74;;
77361;Laerm;66427;51.798;10.954;2023-09-07T01:48:40;39.17;29.61;53.64;;
77361;Laerm;66427;51.798;10.954;2023-09-07T01:51:07;37.95;31.04;48.26;;
77361;Laerm;66427;51.798;10.954;2023-09-07T01:53:32;52.93;31.17;70.14;;
77361;Laerm;66427;51.798;10.954;2023-09-07T01:55:58;35.70;30.21;43.14;;
77361;Laerm;66427;51.798;10.954;2023-09-07T01:58:24;41.50;33.74;48.85;;
77361;Laerm;66427;51.798;10.954;2023-09-07T02:00:49;37.14;31.08;47.52;;
77361;Laerm;66427;51.798;10.954;2023-09-07T02:03:15;41.47;32.52;50.20;;
77361;Laerm;66427;51.798;10.954;2023-09-07T02:05:40;44.46;32.45;56.64;;
77361;Laerm;66427;51.798;10.954;2023-09-07T02:08:05;39.51;33.71;45.20;;
77361;Laerm;66427;51.798;10.954;2023-09-07T02:10:31;38.60;32.63;47.14;;
77361;Laerm;66427;51.798;10.954;2023-09-07T02:12:56;43.90;36.19;55.05;;
77361;Laerm;66427;51.798;10.954;2023-09-07T02:15:23;36.25;31.95;43.56;;
77361;Laerm;66427;51.798;10.954;2023-09-07T02:17:48;42.13;36.26;47.76;;
77361;Laerm;66427;51.798;10.954;2023-09-07T02:20:13;42.13;36.20;49.06;;
77361;Laerm;66427;51.798;10.954;2023-09-07T02:22:39;40.72;36.67;48.09;;
77361;Laerm;66427;51.798;10.954;2023-09-07T02:25:05;40.48;35.36;49.72;;
77361;Laerm;66427;51.798;10.954;2023-09-07T02:27:31;39.82;34.74;46.12;;
77361;Laerm;66427;51.798;10.954;2023-09-07T02:29:57;44.49;36.07;55.50;;
77361;Laerm;66427;51.798;10.954;2023-09-07T02:32:22;44.17;39.23;50.21;;
77361;Laerm;66427;51.798;10.954;2023-09-07T02:34:47;41.82;34.66;53.45;;
77361;Laerm;66427;51.798;10.954;2023-09-07T02:37:13;38.36;34.92;44.54;;
77361;Laerm;66427;51.798;10.954;2023-09-07T02:39:39;38.74;35.16;49.48;;
77361;Laerm;66427;51.798;10.954;2023-09-07T02:42:05;40.61;36.61;47.28;;
77361;Laerm;66427;51.798;10.954;2023-09-07T02:44:31;50.01;33.86;65.56;;
77361;Laerm;66427;51.798;10.954;2023-09-07T02:46:56;40.70;36.86;47.42;;
77361;Laerm;66427;51.798;10.954;2023-09-07T02:49:21;40.06;36.32;43.96;;
77361;Laerm;66427;51.798;10.954;2023-09-07T02:51:47;40.17;36.77;45.13;;
77361;Laerm;66427;51.798;10.954;2023-09-07T02:54:12;41.99;39.13;51.74;;
77361;Laerm;66427;51.798;10.954;2023-09-07T02:56:38;40.01;36.72;46.02;;
77361;Laerm;66427;51.798;10.954;2023-09-07T02:59:03;40.41;36.24;46.25;;
77361;Laerm;66427;51.798;10.954;2023-09-07T03:01:30;41.44;35.66;62.33;;
77361;Laerm;66427;51.798;10.954;2023-09-07T03:03:56;40.26;37.12;47.47;;
77361;Laerm;66427;51.798;10.954;2023-09-07T03:06:21;41.09;35.87;54.67;;
77361;Laerm;66427;51.798;10.954;2023-09-07T03:08:46;42.98;37.21;54.59;;
77361;Laerm;66427;51.798;10.954;2023-09-07T03:11:12;43.25;37.53;48.04;;
77361;Laerm;66427;51.798;10.954;2023-09-07T03:13:37;42.05;35.83;49.91;;
77361;Laerm;66427;51.798;10.954;2023-09-07T03:16:03;43.02;36.58;48.56;;
77361;Laerm;66427;51.798;10.954;2023-09-07T03:18:29;52.66;38.63;68.37;;
77361;Laerm;66427;51.798;10.954;2023-09-07T03:20:54;57.21;37.56;75.14;;
77361;Laerm;66427;51.798;10.954;2023-09-07T03:23:23;41.63;36.28;50.71;;
77361;Laerm;66427;51.798;10.954;2023-09-07T03:25:48;43.94;38.89;51.74;;
77361;Laerm;66427;51.798;10.954;2023-09-07T03:28:13;53.17;39.79;66.62;;
77361;Laerm;66427;51.798;10.954;2023-09-07T03:30:39;49.98;40.94;64.87;;
77361;Laerm;66427;51.798;10.954;2023-09-07T03:33:04;47.80;40.98;59.71;;
77361;Laerm;66427;51.798;10.954;2023-09-07T03:35:30;44.26;39.72;51.75;;
77361;Laerm;66427;51.798;10.954;2023-09-07T03:37:56;50.10;40.43;65.11;;
77361;Laerm;66427;51.798;10.954;2023-09-07T03:40:21;44.98;41.52;50.00;;
77361;Laerm;66427;51.798;10.954;2023-09-07T03:42:46;42.57;38.92;47.74;;
77361;Laerm;66427;51.798;10.954;2023-09-07T03:45:12;49.79;41.68;63.74;;
77361;Laerm;66427;51.798;10.954;2023-09-07T03:47:37;54.08;42.08;69.75;;
77361;Laerm;66427;51.798;10.954;2023-09-07T03:50:03;45.64;39.90;53.92;;
77361;Laerm;66427;51.798;10.954;2023-09-07T03:52:28;46.41;40.85;52.59;;
77361;Laerm;66427;51.798;10.954;2023-09-07T03:54:54;53.63;38.36;69.10;;
77361;Laerm;66427;51.798;10.954;2023-09-07T03:57:20;52.09;42.68;64.38;;
77361;Laerm;66427;51.798;10.954;2023-09-07T03:59:46;52.98;41.65;67.24;;
77361;Laerm;66427;51.798;10.954;2023-09-07T04:02:11;53.66;42.14;64.48;;
77361;Laerm;66427;51.798;10.954;2023-09-07T04:04:37;53.53;41.72;67.09;;
77361;Laerm;66427;51.798;10.954;2023-09-07T04:07:03;46.39;41.90;54.83;;
77361;Laerm;66427;51.798;10.954;2023-09-07T04:09:28;51.58;42.07;64.77;;
77361;Laerm;66427;51.798;10.954;2023-09-07T04:11:54;54.25;41.32;67.69;;
77361;Laerm;66427;51.798;10.954;2023-09-07T04:14:19;45.44;39.52;52.65;;
77361;Laerm;66427;51.798;10.954;2023-09-07T04:16:44;49.35;43.70;63.89;;
77361;Laerm;66427;51.798;10.954;2023-09-07T04:19:10;50.06;44.33;62.52;;
77361;Laerm;66427;51.798;10.954;2023-09-07T04:21:35;46.25;42.73;50.97;;
77361;Laerm;66427;51.798;10.954;2023-09-07T04:24:01;57.60;44.18;73.84;;
77361;Laerm;66427;51.798;10.954;2023-09-07T04:26:26;51.12;42.16;63.99;;
77361;Laerm;66427;51.798;10.954;2023-09-07T04:28:51;48.90;42.38;61.23;;
77361;Laerm;66427;51.798;10.954;2023-09-07T04:31:17;46.66;43.87;51.46;;
77361;Laerm;66427;51.798;10.954;2023-09-07T04:33:42;61.66;44.85;76.13;;
77361;Laerm;66427;51.798;10.954;2023-09-07T04:36:08;56.22;44.13;67.66;;
77361;Laerm;66427;51.798;10.954;2023-09-07T04:38:34;58.68;46.14;70.98;;
77361;Laerm;66427;51.798;10.954;2023-09-07T04:41:08;50.72;42.46;62.00;;
77361;Laerm;66427;51.798;10.954;2023-09-07T04:43:34;46.11;42.04;55.80;;
77361;Laerm;66427;51.798;10.954;2023-09-07T04:45:59;53.57;43.51;64.35;;
77361;Laerm;66427;51.798;10.954;2023-09-07T04:48:25;50.38;42.65;63.11;;
77361;Laerm;66427;51.798;10.954;2023-09-07T04:51:02;55.61;44.06;70.90;;
77361;Laerm;66427;51.798;10.954;2023-09-07T04:53:29;56.87;43.56;68.02;;
77361;Laerm;66427;51.798;10.954;2023-09-07T04:55:54;56.33;44.20;66.51;;
77361;Laerm;66427;51.798;10.954;2023-09-07T04:58:20;52.36;42.85;68.93;;
77361;Laerm;66427;51.798;10.954;2023-09-07T05:00:45;49.99;45.34;59.12;;
77361;Laerm;66427;51.798;10.954;2023-09-07T05:03:10;53.76;45.28;68.51;;
77361;Laerm;66427;51.798;10.954;2023-09-07T05:05:38;52.68;43.63;64.35;;
77361;Laerm;66427;51.798;10.954;2023-09-07T05:08:04;57.12;42.93;74.74;;
77361;Laerm;66427;51.798;10.954;2023-09-07T05:10:32;62.73;45.54;88.11;;
77361;Laerm;66427;51.798;10.954;2023-09-07T05:12:57;57.96;45.45;70.20;;
77361;Laerm;66427;51.798;10.954;2023-09-07T05:15:23;52.33;43.19;60.72;;
77361;Laerm;66427;51.798;10.954;2023-09-07T05:17:48;56.80;44.07;68.55;;
77361;Laerm;66427;51.798;10.954;2023-09-07T05:20:14;59.08;46.45;67.77;;
77361;Laerm;66427;51.798;10.954;2023-09-07T05:22:39;58.48;45.24;69.95;;
77361;Laerm;66427;51.798;10.954;2023-09-07T05:25:06;55.80;43.27;67.78;;
77361;Laerm;66427;51.798;10.954;2023-09-07T05:27:31;60.60;46.46;73.63;;
77361;Laerm;66427;51.798;10.954;2023-09-07T05:29:56;61.01;47.26;70.16;;
77361;Laerm;66427;51.798;10.954;2023-09-07T05:32:22;70.85;53.42;79.81;;
77361;Laerm;66427;51.798;10.954;2023-09-07T05:34:47;65.10;47.91;75.84;;
77361;Laerm;66427;51.798;10.954;2023-09-07T05:37:12;59.51;45.48;71.32;;
77361;Laerm;66427;51.798;10.954;2023-09-07T05:39:38;53.51;43.09;65.66;;
77361;Laerm;66427;51.798;10.954;2023-09-07T05:42:03;53.51;44.02;66.59;;
77361;Laerm;66427;51.798;10.954;2023-09-07T05:44:29;51.82;43.11;63.09;;
77361;Laerm;66427;51.798;10.954;2023-09-07T05:46:54;52.73;43.64;64.07;;
77361;Laerm;66427;51.798;10.954;2023-09-07T05:49:19;60.37;44.80;74.40;;
77361;Laerm;66427;51.798;10.954;2023-09-07T05:51:45;74.69;49.10;84.89;;
77361;Laerm;66427;51.798;10.954;2023-09-07T05:54:10;54.94;44.12;65.52;;
77361;Laerm;66427;51.798;10.954;2023-09-07T05:56:35;54.02;42.99;67.64;;
77361;Laerm;66427;51.798;10.954;2023-09-07T05:59:01;58.33;43.37;70.96;;
77361;Laerm;66427;51.798;10.954;2023-09-07T06:01:26;55.28;44.07;64.22;;
77361;Laerm;66427;51.798;10.954;2023-09-07T06:03:52;53.17;43.99;64.70;;
77361;Laerm;66427;51.798;10.954;2023-09-07T06:06:17;54.06;45.03;68.84;;
77361;Laerm;66427;51.798;10.954;2023-09-07T06:08:42;55.63;46.64;70.53;;
77361;Laerm;66427;51.798;10.954;2023-09-07T06:11:08;55.29;45.87;64.88;;
77361;Laerm;66427;51.798;10.954;2023-09-07T06:13:33;55.31;47.85;66.77;;
77361;Laerm;66427;51.798;10.954;2023-09-07T06:15:59;56.36;47.86;67.11;;
77361;Laerm;66427;51.798;10.954;2023-09-07T06:18:25;56.83;45.45;69.79;;
77361;Laerm;66427;51.798;10.954;2023-09-07T06:20:51;52.56;46.20;61.08;;
77361;Laerm;66427;51.798;10.954;2023-09-07T06:23:16;58.98;46.63;78.16;;
77361;Laerm;66427;51.798;10.954;2023-09-07T06:25:41;56.93;43.67;71.92;;
77361;Laerm;66427;51.798;10.954;2023-09-07T06:28:07;51.25;44.31;62.30;;
77361;Laerm;66427;51.798;10.954;2023-09-07T06:30:32;50.39;44.84;63.70;;
77361;Laerm;66427;51.798;10.954;2023-09-07T06:32:58;55.66;45.57;68.57;;
77361;Laerm;66427;51.798;10.954;2023-09-07T06:35:25;54.46;43.52;62.61;;
77361;Laerm;66427;51.798;10.954;2023-09-07T06:37:51;64.21;45.11;78.46;;
77361;Laerm;66427;51.798;10.954;2023-09-07T06:40:16;54.91;44.05;72.81;;
77361;Laerm;66427;51.798;10.954;2023-09-07T06:42:43;53.34;43.51;65.83;;
77361;Laerm;66427;51.798;10.954;2023-09-07T06:45:08;59.70;43.43;75.02;;
77361;Laerm;66427;51.798;10.954;2023-09-07T06:47:34;55.10;43.86;69.84;;
77361;Laerm;66427;51.798;10.954;2023-09-07T06:50:00;53.22;42.86;66.06;;
77361;Laerm;66427;51.798;10.954;2023-09-07T06:52:25;65.89;40.33;74.53;;
77361;Laerm;66427;51.798;10.954;2023-09-07T06:54:51;65.26;55.64;72.43;;
77361;Laerm;66427;51.798;10.954;2023-09-07T06:57:16;61.99;54.82;73.75;;
77361;Laerm;66427;51.798;10.954;2023-09-07T06:59:42;62.99;53.60;77.29;;
77361;Laerm;66427;51.798;10.954;2023-09-07T07:02:08;58.32;40.80;70.46;;
77361;Laerm;66427;51.798;10.954;2023-09-07T07:04:34;61.76;41.15;70.68;;
77361;Laerm;66427;51.798;10.954;2023-09-07T07:07:00;61.10;40.40;70.36;;
77361;Laerm;66427;51.798;10.954;2023-09-07T07:09:29;62.66;56.26;68.74;;
77361;Laerm;66427;51.798;10.954;2023-09-07T07:11:54;61.32;55.80;66.78;;
77361;Laerm;66427;51.798;10.954;2023-09-07T07:14:20;59.13;55.93;63.12;;
77361;Laerm;66427;51.798;10.954;2023-09-07T07:16:45;58.95;44.76;66.39;;
77361;Laerm;66427;51.798;10.954;2023-09-07T07:19:11;52.80;39.94;66.23;;
77361;Laerm;66427;51.798;10.954;2023-09-07T07:21:36;52.86;39.15;66.75;;
77361;Laerm;66427;51.798;10.954;2023-09-07T07:24:01;59.75;39.09;74.52;;
77361;Laerm;66427;51.798;10.954;2023-09-07T07:26:27;51.71;38.31;67.17;;
77361;Laerm;66427;51.798;10.954;2023-09-07T07:28:52;54.29;39.89;70.85;;
77361;Laerm;66427;51.798;10.954;2023-09-07T07:31:17;49.86;38.67;63.21;;
77361;Laerm;66427;51.798;10.954;2023-09-07T07:33:43;57.25;38.04;71.69;;
77361;Laerm;66427;51.798;10.954;2023-09-07T07:36:08;56.43;39.30;66.32;;
77361;Laerm;66427;51.798;10.954;2023-09-07T07:38:34;48.78;37.94;63.87;;
77361;Laerm;66427;51.798;10.954;2023-09-07T07:41:00;56.30;39.90;76.33;;
77361;Laerm;66427;51.798;10.954;2023-09-07T07:43:25;60.96;38.86;78.06;;
77361;Laerm;66427;51.798;10.954;2023-09-07T07:45:51;60.82;38.40;77.23;;
77361;Laerm;66427;51.798;10.954;2023-09-07T07:48:17;51.30;38.20;65.19;;
77361;Laerm;66427;51.798;10.954;2023-09-07T07:50:42;53.24;38.91;64.40;;
77361;Laerm;66427;51.798;10.954;2023-09-07T07:53:08;50.51;38.66;63.18;;
77361;Laerm;66427;51.798;10.954;2023-09-07T07:55:34;50.61;38.66;65.74;;
77361;Laerm;66427;51.798;10.954;2023-09-07T07:58:04;54.47;40.15;66.80;;
77361;Laerm;66427;51.798;10.954;2023-09-07T08:00:30;54.38;40.02;70.54;;
77361;Laerm;66427;51.798;10.954;2023-09-07T08:02:56;54.19;39.83;71.60;;
77361;Laerm;66427;51.798;10.954;2023-09-07T08:05:21;53.81;39.89;65.02;;
77361;Laerm;66427;51.798;10.954;2023-09-07T08:07:47;53.08;40.72;65.94;;
77361;Laerm;66427;51.798;10.954;2023-09-07T08:10:12;51.98;41.28;62.16;;
77361;Laerm;66427;51.798;10.954;2023-09-07T08:12:38;50.28;38.98;64.20;;
77361;Laerm;66427;51.798;10.954;2023-09-07T08:15:03;53.21;36.47;65.62;;
77361;Laerm;66427;51.798;10.954;2023-09-07T08:17:29;58.80;40.53;73.75;;
77361;Laerm;66427;51.798;10.954;2023-09-07T08:19:54;58.32;38.96;72.94;;
77361;Laerm;66427;51.798;10.954;2023-09-07T08:22:21;51.94;38.13;65.46;;
77361;Laerm;66427;51.798;10.954;2023-09-07T08:24:47;52.81;36.79;66.82;;
77361;Laerm;66427;51.798;10.954;2023-09-07T08:27:13;54.83;37.24;65.69;;
77361;Laerm;66427;51.798;10.954;2023-09-07T08:29:43;53.04;37.20;65.32;;
77361;Laerm;66427;51.798;10.954;2023-09-07T08:32:12;51.85;38.22;64.76;;
77361;Laerm;66427;51.798;10.954;2023-09-07T08:34:39;57.95;37.62;75.43;;
77361;Laerm;66427;51.798;10.954;2023-09-07T08:37:06;51.27;37.26;64.00;;
77361;Laerm;66427;51.798;10.954;2023-09-07T08:39:34;50.51;37.60;66.48;;
77361;Laerm;66427;51.798;10.954;2023-09-07T08:41:59;50.96;37.09;62.24;;
77361;Laerm;66427;51.798;10.954;2023-09-07T08:44:26;53.66;36.70;66.72;;
77361;Laerm;66427;51.798;10.954;2023-09-07T08:46:51;53.47;38.77;66.05;;
77361;Laerm;66427;51.798;10.954;2023-09-07T08:49:18;55.30;37.93;64.15;;
77361;Laerm;66427;51.798;10.954;2023-09-07T08:51:48;54.13;40.50;67.95;;
77361;Laerm;66427;51.798;10.954;2023-09-07T08:54:14;50.88;39.39;69.32;;
77361;Laerm;66427;51.798;10.954;2023-09-07T08:56:39;49.15;38.77;61.45;;
77361;Laerm;66427;51.798;10.954;2023-09-07T08:59:04;63.54;43.49;86.94;;
77361;Laerm;66427;51.798;10.954;2023-09-07T09:01:32;54.46;40.09;68.64;;
77361;Laerm;66427;51.798;10.954;2023-09-07T09:03:58;54.42;38.80;66.64;;
77361;Laerm;66427;51.798;10.954;2023-09-07T09:06:23;51.83;39.50;67.54;;
77361;Laerm;66427;51.798;10.954;2023-09-07T09:08:49;53.98;41.09;74.25;;
77361;Laerm;66427;51.798;10.954;2023-09-07T09:11:16;50.02;38.14;61.73;;
77361;Laerm;66427;51.798;10.954;2023-09-07T09:13:41;52.17;38.89;63.99;;
77361;Laerm;66427;51.798;10.954;2023-09-07T09:16:07;48.94;38.46;64.76;;
77361;Laerm;66427;51.798;10.954;2023-09-07T09:18:32;50.24;38.70;61.25;;
77361;Laerm;66427;51.798;10.954;2023-09-07T09:20:58;53.74;39.87;66.40;;
77361;Laerm;66427;51.798;10.954;2023-09-07T09:23:24;67.37;42.67;77.78;;
77361;Laerm;66427;51.798;10.954;2023-09-07T09:25:50;56.16;38.94;73.03;;
77361;Laerm;66427;51.798;10.954;2023-09-07T09:28:16;53.77;39.84;69.96;;
77361;Laerm;66427;51.798;10.954;2023-09-07T09:30:41;60.19;38.93;77.61;;
77361;Laerm;66427;51.798;10.954;2023-09-07T09:33:10;57.04;39.41;70.60;;
77361;Laerm;66427;51.798;10.954;2023-09-07T09:35:35;56.01;39.46;68.45;;
77361;Laerm;66427;51.798;10.954;2023-09-07T09:38:01;58.00;38.87;73.94;;
77361;Laerm;66427;51.798;10.954;2023-09-07T09:40:32;53.66;38.26;68.75;;
77361;Laerm;66427;51.798;10.954;2023-09-07T09:42:59;54.11;38.33;63.68;;
77361;Laerm;66427;51.798;10.954;2023-09-07T09:45:26;55.51;40.56;68.45;;
77361;Laerm;66427;51.798;10.954;2023-09-07T09:47:52;57.74;39.63;81.38;;
77361;Laerm;66427;51.798;10.954;2023-09-07T09:50:19;62.17;38.65;83.72;;
77361;Laerm;66427;51.798;10.954;2023-09-07T09:52:45;53.23;39.88;71.18;;
77361;Laerm;66427;51.798;10.954;2023-09-07T09:55:10;56.95;39.67;74.81;;
77361;Laerm;66427;51.798;10.954;2023-09-07T09:57:38;55.45;42.08;65.61;;
77361;Laerm;66427;51.798;10.954;2023-09-07T10:00:04;52.50;39.54;63.64;;
77361;Laerm;66427;51.798;10.954;2023-09-07T10:02:48;55.63;40.80;68.38;;
77361;Laerm;66427;51.798;10.954;2023-09-07T10:05:15;54.36;40.74;67.47;;
77361;Laerm;66427;51.798;10.954;2023-09-07T10:07:44;53.75;41.46;66.62;;
77361;Laerm;66427;51.798;10.954;2023-09-07T10:10:12;62.25;40.45;75.19;;
77361;Laerm;66427;51.798;10.954;2023-09-07T10:12:44;52.69;37.56;68.44;;
77361;Laerm;66427;51.798;10.954;2023-09-07T10:15:22;55.19;38.79;66.57;;
77361;Laerm;66427;51.798;10.954;2023-09-07T10:17:48;55.64;38.08;69.58;;
77361;Laerm;66427;51.798;10.954;2023-09-07T10:20:17;66.76;41.45;84.39;;
77361;Laerm;66427;51.798;10.954;2023-09-07T10:22:43;50.06;38.05;64.98;;
77361;Laerm;66427;51.798;10.954;2023-09-07T10:25:18;53.68;39.84;64.64;;
77361;Laerm;66427;51.798;10.954;2023-09-07T10:27:44;51.49;38.85;64.99;;
77361;Laerm;66427;51.798;10.954;2023-09-07T10:30:09;51.77;37.92;67.31;;
77361;Laerm;66427;51.798;10.954;2023-09-07T10:32:41;54.61;38.13;72.71;;
77361;Laerm;66427;51.798;10.954;2023-09-07T10:35:15;56.08;39.74;73.00;;
77361;Laerm;66427;51.798;10.954;2023-09-07T10:37:44;55.51;40.54;74.38;;
77361;Laerm;66427;51.798;10.954;2023-09-07T10:40:10;57.77;40.15;74.02;;
77361;Laerm;66427;51.798;10.954;2023-09-07T10:42:37;51.90;41.42;66.98;;
77361;Laerm;66427;51.798;10.954;2023-09-07T10:45:13;52.25;43.21;65.07;;
77361;Laerm;66427;51.798;10.954;2023-09-07T10:47:44;52.77;41.69;68.24;;
77361;Laerm;66427;51.798;10.954;2023-09-07T10:50:11;53.95;41.42;66.07;;
77361;Laerm;66427;51.798;10.954;2023-09-07T10:52:38;51.36;41.71;63.28;;
77361;Laerm;66427;51.798;10.954;2023-09-07T10:55:03;53.55;42.79;64.69;;
77361;Laerm;66427;51.798;10.954;2023-09-07T10:57:29;54.29;43.23;65.65;;
77361;Laerm;66427;51.798;10.954;2023-09-07T10:59:54;55.38;42.87;68.02;;
77361;Laerm;66427;51.798;10.954;2023-09-07T11:02:20;60.45;41.89;68.84;;
77361;Laerm;66427;51.798;10.954;2023-09-07T11:04:45;55.81;42.70;67.55;;
77361;Laerm;66427;51.798;10.954;2023-09-07T11:07:11;51.37;42.03;65.67;;
77361;Laerm;66427;51.798;10.954;2023-09-07T11:09:40;64.02;41.69;77.63;;
77361;Laerm;66427;51.798;10.954;2023-09-07T11:12:05;54.45;42.64;81.79;;
77361;Laerm;66427;51.798;10.954;2023-09-07T11:14:31;54.88;43.55;66.10;;
77361;Laerm;66427;51.798;10.954;2023-09-07T11:16:56;45.38;41.46;54.10;;
77361;Laerm;66427;51.798;10.954;2023-09-07T11:19:22;54.21;42.03;69.97;;
77361;Laerm;66427;51.798;10.954;2023-09-07T11:21:47;59.97;43.22;75.62;;
77361;Laerm;66427;51.798;10.954;2023-09-07T11:24:13;55.63;44.00;68.78;;
77361;Laerm;66427;51.798;10.954;2023-09-07T11:26:44;54.01;43.30;67.28;;
77361;Laerm;66427;51.798;10.954;2023-09-07T11:29:13;50.34;43.18;62.27;;
77361;Laerm;66427;51.798;10.954;2023-09-07T11:31:38;44.75;40.99;53.16;;
77361;Laerm;66427;51.798;10.954;2023-09-07T11:34:08;55.49;39.69;71.66;;
77361;Laerm;66427;51.798;10.954;2023-09-07T11:36:34;50.57;41.42;61.75;;
77361;Laerm;66427;51.798;10.954;2023-09-07T11:38:59;60.67;44.15;76.52;;
77361;Laerm;66427;51.798;10.954;2023-09-07T11:41:24;61.56;43.25;80.17;;
77361;Laerm;66427;51.798;10.954;2023-09-07T11:43:50;61.35;44.87;79.40;;
77361;Laerm;66427;51.798;10.954;2023-09-07T11:46:15;53.80;44.16;64.88;;
77361;Laerm;66427;51.798;10.954;2023-09-07T11:48:40;53.01;43.40;65.96;;
77361;Laerm;66427;51.798;10.954;2023-09-07T11:51:06;56.76;46.64;68.50;;
77361;Laerm;66427;51.798;10.954;2023-09-07T11:53:33;54.76;42.90;72.02;;
77361;Laerm;66427;51.798;10.954;2023-09-07T11:55:58;58.90;41.15;74.18;;
77361;Laerm;66427;51.798;10.954;2023-09-07T11:58:24;54.91;41.41;73.01;;
77361;Laerm;66427;51.798;10.954;2023-09-07T12:00:51;58.76;42.85;73.09;;
77361;Laerm;66427;51.798;10.954;2023-09-07T12:03:16;53.75;41.53;65.66;;
77361;Laerm;66427;51.798;10.954;2023-09-07T12:05:42;54.23;43.65;66.38;;
77361;Laerm;66427;51.798;10.954;2023-09-07T12:08:09;51.16;42.46;63.03;;
77361;Laerm;66427;51.798;10.954;2023-09-07T12:10:34;60.42;42.08;79.47;;
77361;Laerm;66427;51.798;10.954;2023-09-07T12:13:00;55.43;41.02;64.47;;
77361;Laerm;66427;51.798;10.954;2023-09-07T12:15:25;53.27;41.28;64.60;;
77361;Laerm;66427;51.798;10.954;2023-09-07T12:17:51;54.15;40.61;65.56;;
77361;Laerm;66427;51.798;10.954;2023-09-07T12:20:19;54.98;42.19;75.36;;
77361;Laerm;66427;51.798;10.954;2023-09-07T12:22:44;55.35;42.20;68.85;;
77361;Laerm;66427;51.798;10.954;2023-09-07T12:25:10;52.65;42.60;65.92;;
77361;Laerm;66427;51.798;10.954;2023-09-07T12:27:38;49.91;42.56;63.12;;
77361;Laerm;66427;51.798;10.954;2023-09-07T12:30:03;50.88;41.78;63.33;;
77361;Laerm;66427;51.798;10.954;2023-09-07T12:32:33;49.93;42.07;65.11;;
77361;Laerm;66427;51.798;10.954;2023-09-07T12:34:59;57.51;42.76;73.46;;
77361;Laerm;66427;51.798;10.954;2023-09-07T12:37:24;54.07;43.07;65.70;;
77361;Laerm;66427;51.798;10.954;2023-09-07T12:39:50;51.19;42.92;62.24;;
77361;Laerm;66427;51.798;10.954;2023-09-07T12:42:16;51.28;41.74;63.49;;
77361;Laerm;66427;51.798;10.954;2023-09-07T12:44:41;57.22;43.88;75.48;;
77361;Laerm;66427;51.798;10.954;2023-09-07T12:47:06;53.49;42.76;70.67;;
77361;Laerm;66427;51.798;10.954;2023-09-07T12:49:32;54.30;41.77;67.96;;
77361;Laerm;66427;51.798;10.954;2023-09-07T12:51:57;58.09;41.26;65.90;;
77361;Laerm;66427;51.798;10.954;2023-09-07T12:54:22;48.52;40.51;62.02;;
77361;Laerm;66427;51.798;10.954;2023-09-07T12:56:48;54.20;43.30;63.74;;
77361;Laerm;66427;51.798;10.954;2023-09-07T12:59:14;56.86;42.27;69.07;;
77361;Laerm;66427;51.798;10.954;2023-09-07T13:01:39;56.05;40.80;67.26;;
77361;Laerm;66427;51.798;10.954;2023-09-07T13:04:05;56.01;40.86;68.21;;
77361;Laerm;66427;51.798;10.954;2023-09-07T13:06:30;54.84;40.53;66.68;;
77361;Laerm;66427;51.798;10.954;2023-09-07T13:08:55;54.73;40.18;65.24;;
77361;Laerm;66427;51.798;10.954;2023-09-07T13:11:21;54.68;40.62;69.23;;
77361;Laerm;66427;51.798;10.954;2023-09-07T13:13:46;61.53;42.47;79.16;;
77361;Laerm;66427;51.798;10.954;2023-09-07T13:16:11;60.74;42.96;81.90;;
77361;Laerm;66427;51.798;10.954;2023-09-07T13:18:38;54.35;41.87;64.01;;
77361;Laerm;66427;51.798;10.954;2023-09-07T13:21:03;54.26;43.47;66.23;;
77361;Laerm;66427;51.798;10.954;2023-09-07T13:23:29;61.64;43.33;77.02;;
77361;Laerm;66427;51.798;10.954;2023-09-07T13:25:54;50.12;41.18;64.70;;